createdAt,value
2024-02-26T00:02:24.815Z,0.80
2024-02-26T00:04:52.806Z,1.67
2024-02-26T00:07:20.805Z,0.80
2024-02-26T00:09:48.890Z,1.57
2024-02-26T00:12:17.027Z,1.23
2024-02-26T00:14:46.380Z,1.00
2024-02-26T00:17:16.026Z,0.87
2024-02-26T00:19:44.263Z,2.77
2024-02-26T00:22:12.362Z,1.67
2024-02-26T00:24:42.529Z,1.60
2024-02-26T00:27:10.639Z,1.27
2024-02-26T00:29:38.768Z,1.23
2024-02-26T00:32:07.513Z,0.40
2024-02-26T00:34:36.964Z,1.70
2024-02-26T00:37:05.671Z,0.90
2024-02-26T00:39:33.857Z,0.80
2024-02-26T00:42:01.998Z,1.10
2024-02-26T00:44:30.039Z,0.90
2024-02-26T00:46:58.078Z,0.80
2024-02-26T00:49:26.123Z,2.17
2024-02-26T00:51:55.729Z,0.60
2024-02-26T00:54:24.088Z,0.50
2024-02-26T00:56:52.332Z,0.43
2024-02-26T00:59:20.410Z,0.70
2024-02-26T01:01:48.435Z,1.13
2024-02-26T01:04:16.513Z,2.27
2024-02-26T01:06:44.722Z,1.13
2024-02-26T01:09:14.300Z,1.37
2024-02-26T01:11:42.554Z,1.10
2024-02-26T01:14:10.695Z,1.03
2024-02-26T01:16:38.771Z,0.57
2024-02-26T01:19:06.940Z,1.23
2024-02-26T01:21:35.126Z,1.57
2024-02-26T01:24:03.220Z,0.47
2024-02-26T01:26:32.698Z,0.97
2024-02-26T01:29:00.798Z,2.53
2024-02-26T01:31:28.828Z,0.97
2024-02-26T01:33:57.040Z,0.63
2024-02-26T01:36:25.302Z,0.60
2024-02-26T01:38:53.320Z,0.60
2024-02-26T01:41:21.456Z,0.37
2024-02-26T01:43:50.871Z,0.77
2024-02-26T01:46:19.823Z,1.53
2024-02-26T01:48:48.915Z,0.60
2024-02-26T01:51:18.807Z,0.80
2024-02-26T01:53:47.018Z,0.73
2024-02-26T01:56:16.907Z,0.57
2024-02-26T01:58:45.822Z,0.40
2024-02-26T02:01:17.129Z,1.10
2024-02-26T02:03:46.520Z,0.63
2024-02-26T02:06:15.221Z,0.50
2024-02-26T02:08:44.277Z,1.40
2024-02-26T02:11:13.786Z,0.47
2024-02-26T02:13:41.985Z,0.63
2024-02-26T02:16:10.187Z,0.70
2024-02-26T02:18:39.776Z,0.50
2024-02-26T02:21:09.280Z,0.60
2024-02-26T02:23:37.367Z,0.50
2024-02-26T02:26:05.737Z,1.17
2024-02-26T02:28:34.344Z,0.77
2024-02-26T02:31:02.996Z,0.57
2024-02-26T02:33:31.341Z,0.70
2024-02-26T02:36:00.008Z,1.87
2024-02-26T02:38:31.124Z,0.60
2024-02-26T02:40:59.456Z,0.80
2024-02-26T02:43:27.491Z,0.77
2024-02-26T02:45:55.490Z,0.60
2024-02-26T02:48:23.560Z,0.50
2024-02-26T02:50:51.705Z,0.40
2024-02-26T02:53:19.723Z,0.80
2024-02-26T02:55:49.583Z,0.40
2024-02-26T02:58:17.749Z,0.70
2024-02-26T03:00:45.783Z,0.70
2024-02-26T03:03:13.870Z,0.70
2024-02-26T03:05:42.035Z,0.73
2024-02-26T03:08:10.479Z,0.30
2024-02-26T03:10:38.605Z,0.53
2024-02-26T03:13:08.157Z,0.63
2024-02-26T03:15:36.421Z,0.30
2024-02-26T03:18:05.027Z,0.30
2024-02-26T03:20:33.152Z,0.50
2024-02-26T03:23:01.169Z,0.60
2024-02-26T03:25:29.191Z,1.47
2024-02-26T03:27:57.326Z,0.77
2024-02-26T03:30:27.007Z,1.63
2024-02-26T03:32:55.337Z,0.40
2024-02-26T03:35:23.471Z,0.50
2024-02-26T03:37:52.912Z,0.50
2024-02-26T03:40:21.059Z,0.30
2024-02-26T03:42:49.322Z,0.40
2024-02-26T03:45:17.616Z,0.70
2024-02-26T03:47:47.217Z,1.07
2024-02-26T03:50:15.301Z,1.20
2024-02-26T03:52:43.874Z,0.40
2024-02-26T03:55:12.344Z,0.80
2024-02-26T03:57:40.447Z,1.23
2024-02-26T04:00:10.128Z,0.50
2024-02-26T04:02:41.045Z,0.57
2024-02-26T04:05:13.759Z,0.30
2024-02-26T04:07:42.008Z,0.93
2024-02-26T04:10:13.470Z,0.57
2024-02-26T04:12:42.658Z,0.50
2024-02-26T04:15:12.085Z,0.87
2024-02-26T04:17:41.008Z,0.53
2024-02-26T04:20:11.031Z,0.53
2024-02-26T04:22:40.446Z,0.30
2024-02-26T04:25:08.936Z,0.60
2024-02-26T04:27:37.081Z,0.47
2024-02-26T04:30:06.306Z,0.40
2024-02-26T04:32:35.510Z,0.63
2024-02-26T04:35:03.680Z,0.40
2024-02-26T04:37:32.764Z,0.40
2024-02-26T04:40:03.915Z,0.57
2024-02-26T04:42:32.435Z,0.30
2024-02-26T04:45:00.649Z,1.07
2024-02-26T04:47:28.822Z,0.33
2024-02-26T04:49:56.907Z,0.30
2024-02-26T04:52:23.997Z,0.33
2024-02-26T04:54:52.139Z,0.80
2024-02-26T04:57:21.606Z,0.20
2024-02-26T04:59:49.721Z,0.73
2024-02-26T05:02:17.934Z,0.40
2024-02-26T05:04:46.092Z,0.93
2024-02-26T05:07:14.488Z,0.43
2024-02-26T05:09:43.303Z,0.53
2024-02-26T05:12:11.610Z,1.90
2024-02-26T05:14:41.730Z,0.20
2024-02-26T05:17:09.806Z,0.43
2024-02-26T05:19:37.982Z,0.67
2024-02-26T05:22:06.024Z,1.20
2024-02-26T05:24:34.112Z,1.10
2024-02-26T05:27:03.075Z,0.50
2024-02-26T05:29:31.195Z,0.20
2024-02-26T05:32:00.843Z,0.50
2024-02-26T05:34:28.966Z,0.30
2024-02-26T05:36:57.002Z,0.30
2024-02-26T05:39:25.099Z,0.20
2024-02-26T05:41:53.167Z,0.60
2024-02-26T05:44:21.307Z,0.40
2024-02-26T05:46:49.399Z,2.03
2024-02-26T05:49:18.915Z,0.50
2024-02-26T05:51:47.144Z,0.67
2024-02-26T05:54:15.229Z,0.30
2024-02-26T05:56:43.855Z,2.28
2024-02-26T05:59:12.016Z,0.70
2024-02-26T06:01:40.033Z,0.43
2024-02-26T06:04:08.100Z,1.70
2024-02-26T06:06:39.953Z,0.87
2024-02-26T06:09:11.602Z,0.40
2024-02-26T06:11:39.831Z,0.60
2024-02-26T06:14:07.919Z,0.87
2024-02-26T06:16:36.059Z,0.40
2024-02-26T06:19:04.983Z,0.87
2024-02-26T06:21:33.179Z,0.83
2024-02-26T06:24:03.215Z,0.63
2024-02-26T06:26:31.239Z,0.70
2024-02-26T06:28:59.268Z,0.60
2024-02-26T06:31:28.893Z,2.00
2024-02-26T06:33:57.879Z,1.37
2024-02-26T06:36:27.050Z,7.40
2024-02-26T06:38:55.953Z,0.60
2024-02-26T06:41:28.620Z,0.90
2024-02-26T06:43:56.672Z,0.83
2024-02-26T06:46:25.169Z,2.27
2024-02-26T06:48:55.578Z,1.03
2024-02-26T06:51:24.404Z,1.57
2024-02-26T06:53:52.721Z,0.70
2024-02-26T06:56:21.032Z,3.50
2024-02-26T06:58:50.493Z,1.17
2024-02-26T07:01:18.535Z,0.70
2024-02-26T07:03:46.788Z,0.60
2024-02-26T07:06:15.357Z,0.90
2024-02-26T07:08:43.616Z,1.23
2024-02-26T07:11:13.005Z,2.10
2024-02-26T07:13:41.133Z,1.97
2024-02-26T07:16:11.721Z,1.40
2024-02-26T07:18:40.207Z,5.10
2024-02-26T07:21:08.387Z,7.10
2024-02-26T07:23:36.423Z,5.80
2024-02-26T07:26:04.608Z,1.45
2024-02-26T07:28:32.627Z,2.03
2024-02-26T07:31:00.694Z,1.50
2024-02-26T07:33:30.284Z,0.77
2024-02-26T07:35:58.483Z,0.77
2024-02-26T07:38:36.484Z,0.77
2024-02-26T07:41:10.758Z,0.90
2024-02-26T07:43:38.849Z,2.37
2024-02-26T07:46:07.000Z,1.13
2024-02-26T07:48:36.595Z,0.90
2024-02-26T07:51:05.781Z,1.37
2024-02-26T07:53:33.828Z,2.00
2024-02-26T07:56:01.936Z,1.10
2024-02-26T07:58:29.929Z,1.00
2024-02-26T08:00:58.158Z,0.40
2024-02-26T08:03:26.326Z,0.20
2024-02-26T08:05:56.714Z,0.33
2024-02-26T08:08:24.923Z,0.50
2024-02-26T08:10:52.976Z,1.77
2024-02-26T08:13:21.010Z,0.50
2024-02-26T08:15:49.112Z,0.53
2024-02-26T08:18:17.375Z,0.52
2024-02-26T08:20:45.684Z,0.20
2024-02-26T08:23:15.203Z,0.88
2024-02-26T08:25:43.287Z,0.60
2024-02-26T08:28:12.424Z,0.20
2024-02-26T08:30:40.593Z,0.60
2024-02-26T08:33:08.679Z,0.70
2024-02-26T08:35:36.804Z,0.47
2024-02-26T08:38:05.032Z,0.47
2024-02-26T08:40:34.476Z,0.70
2024-02-26T08:43:02.567Z,0.80
2024-02-26T08:45:31.085Z,0.80
2024-02-26T08:47:59.970Z,0.93
2024-02-26T08:50:28.589Z,4.70
2024-02-26T08:52:56.729Z,2.92
2024-02-26T08:55:25.079Z,3.67
2024-02-26T08:57:54.752Z,4.22
2024-02-26T09:00:23.000Z,2.97
2024-02-26T09:02:51.513Z,4.43
2024-02-26T09:05:19.596Z,2.47
2024-02-26T09:07:48.694Z,3.58
2024-02-26T09:10:16.810Z,3.72
2024-02-26T09:12:44.936Z,3.50
2024-02-26T09:15:14.551Z,1.70
2024-02-26T09:17:42.647Z,1.60
2024-02-26T09:20:11.470Z,1.20
2024-02-26T09:22:40.149Z,0.88
2024-02-26T09:25:08.745Z,3.05
2024-02-26T09:27:39.158Z,1.92
2024-02-26T09:30:09.926Z,3.53
2024-02-26T09:32:39.504Z,2.90
2024-02-26T09:35:08.542Z,2.65
2024-02-26T09:37:38.005Z,2.53
2024-02-26T09:40:07.416Z,1.75
2024-02-26T09:42:37.605Z,2.35
2024-02-26T09:45:09.884Z,1.25
2024-02-26T09:47:40.718Z,3.45
2024-02-26T09:50:13.654Z,1.35
2024-02-26T09:52:43.555Z,1.30
2024-02-26T09:55:11.805Z,1.35
2024-02-26T09:57:40.249Z,1.73
2024-02-26T10:00:12.715Z,2.92
2024-02-26T10:02:42.472Z,1.20
2024-02-26T10:05:14.805Z,2.67
2024-02-26T10:07:44.432Z,3.10
2024-02-26T10:10:12.814Z,2.30
2024-02-26T10:12:41.065Z,4.20
2024-02-26T10:15:09.880Z,2.92
2024-02-26T10:17:39.231Z,2.28
2024-02-26T10:20:18.018Z,1.13
2024-02-26T10:22:46.312Z,2.63
2024-02-26T10:25:14.483Z,1.20
2024-02-26T10:27:43.898Z,1.98
2024-02-26T10:30:23.777Z,2.42
2024-02-26T10:32:52.498Z,5.05
2024-02-26T10:35:22.774Z,3.10
2024-02-26T10:37:51.858Z,1.23
2024-02-26T10:40:19.908Z,1.33
2024-02-26T10:42:47.911Z,1.77
2024-02-26T10:45:16.265Z,1.08
2024-02-26T10:47:44.880Z,2.08
2024-02-26T10:50:15.441Z,1.35
2024-02-26T10:52:45.366Z,2.08
2024-02-26T10:55:19.442Z,1.33
2024-02-26T10:57:48.091Z,1.73
2024-02-26T11:00:17.623Z,1.70
2024-02-26T11:02:47.576Z,1.27
2024-02-26T11:05:16.830Z,1.77
2024-02-26T11:07:48.330Z,2.33
2024-02-26T11:10:18.170Z,4.18
2024-02-26T11:12:47.206Z,2.75
2024-02-26T11:15:16.227Z,3.28
2024-02-26T11:17:46.176Z,1.92
2024-02-26T11:20:16.289Z,0.80
2024-02-26T11:22:44.345Z,1.55
2024-02-26T11:25:14.285Z,2.03
2024-02-26T11:27:47.177Z,1.67
2024-02-26T11:30:17.270Z,1.23
2024-02-26T11:32:47.697Z,3.15
2024-02-26T11:35:18.970Z,1.77
2024-02-26T11:37:55.031Z,1.38
2024-02-26T11:40:25.840Z,1.25
2024-02-26T11:42:54.608Z,0.80
2024-02-26T11:45:50.821Z,0.88
2024-02-26T11:48:23.397Z,1.25
2024-02-26T11:50:52.941Z,1.73
2024-02-26T11:53:26.900Z,1.80
2024-02-26T11:56:28.336Z,2.42
2024-02-26T11:59:03.760Z,0.95
2024-02-26T12:01:38.004Z,0.88
2024-02-26T12:04:08.177Z,0.55
2024-02-26T12:06:44.748Z,0.90
2024-02-26T12:09:14.482Z,1.35
2024-02-26T12:11:44.850Z,0.98
2024-02-26T12:14:14.236Z,0.52
2024-02-26T12:16:43.930Z,2.15
2024-02-26T12:19:12.305Z,1.17
2024-02-26T12:21:40.643Z,2.17
2024-02-26T12:24:14.127Z,0.70
2024-02-26T12:26:43.959Z,2.47
2024-02-26T12:29:12.259Z,2.75
2024-02-26T12:31:42.212Z,0.80
2024-02-26T12:34:11.952Z,1.48
2024-02-26T12:36:41.544Z,1.45
2024-02-26T12:39:10.865Z,1.92
2024-02-26T12:41:40.859Z,1.40
2024-02-26T12:44:11.269Z,1.00
2024-02-26T12:46:39.344Z,3.28
2024-02-26T12:49:07.664Z,1.45
2024-02-26T12:51:36.161Z,1.38
2024-02-26T12:54:04.551Z,1.05
2024-02-26T12:56:33.000Z,1.52
2024-02-26T12:59:01.663Z,1.73
2024-02-26T13:01:32.112Z,2.10
2024-02-26T13:04:02.136Z,0.90
2024-02-26T13:06:30.400Z,0.77
2024-02-26T13:09:00.438Z,0.63
2024-02-26T13:11:30.093Z,2.05
2024-02-26T13:13:58.156Z,1.02
2024-02-26T13:16:27.564Z,1.00
2024-02-26T13:18:57.055Z,1.23
2024-02-26T13:21:25.861Z,0.88
2024-02-26T13:23:55.965Z,1.15
2024-02-26T13:26:25.724Z,0.43
2024-02-26T13:29:02.391Z,1.23
2024-02-26T13:31:30.470Z,1.20
2024-02-26T13:34:00.132Z,4.25
2024-02-26T13:36:28.478Z,0.70
2024-02-26T13:38:57.670Z,1.67
2024-02-26T13:41:25.717Z,0.70
2024-02-26T13:43:53.888Z,0.80
2024-02-26T13:46:21.923Z,0.75
2024-02-26T13:48:50.081Z,1.75
2024-02-26T13:51:19.625Z,0.57
2024-02-26T13:53:47.799Z,0.95
2024-02-26T13:56:15.859Z,0.70
2024-02-26T13:58:43.922Z,1.35
2024-02-26T14:01:12.086Z,0.98
2024-02-26T14:03:40.281Z,3.63
2024-02-26T14:06:08.892Z,0.73
2024-02-26T14:08:38.380Z,2.60
2024-02-26T14:11:06.519Z,1.40
2024-02-26T14:13:37.340Z,2.33
2024-02-26T14:16:06.926Z,0.80
2024-02-26T14:18:35.042Z,0.68
2024-02-26T14:21:03.297Z,0.88
2024-02-26T14:23:30.314Z,1.77
2024-02-26T14:26:01.571Z,0.75
2024-02-26T14:28:36.219Z,1.38
2024-02-26T14:31:07.130Z,2.38
2024-02-26T14:33:35.608Z,0.95
2024-02-26T14:36:03.907Z,0.30
2024-02-26T14:38:31.994Z,2.47
2024-02-26T14:41:01.386Z,0.65
2024-02-26T14:43:29.437Z,1.45
2024-02-26T14:45:58.376Z,0.30
2024-02-26T14:48:26.620Z,0.40
2024-02-26T14:50:54.940Z,0.17
2024-02-26T14:53:23.116Z,0.75
2024-02-26T14:55:51.404Z,1.02
2024-02-26T14:58:20.840Z,1.17
2024-02-26T15:00:49.153Z,1.88
2024-02-26T15:03:21.128Z,1.05
2024-02-26T15:05:49.403Z,0.70
2024-02-26T15:08:17.935Z,1.58
2024-02-26T15:10:49.610Z,0.40
2024-02-26T15:13:19.251Z,1.95
2024-02-26T15:15:49.014Z,0.70
2024-02-26T15:18:18.261Z,0.20
2024-02-26T15:20:47.380Z,0.30
2024-02-26T15:23:15.499Z,1.33
2024-02-26T15:25:44.308Z,0.63
2024-02-26T15:28:15.128Z,3.53
2024-02-26T15:30:43.540Z,2.63
2024-02-26T15:33:13.335Z,3.28
2024-02-26T15:35:43.768Z,0.98
2024-02-26T15:38:11.960Z,1.33
2024-02-26T15:40:40.015Z,3.30
2024-02-26T15:43:08.152Z,1.00
2024-02-26T15:45:36.297Z,1.50
2024-02-26T15:48:04.809Z,2.08
2024-02-26T15:50:34.556Z,1.35
2024-02-26T15:53:02.688Z,1.77
2024-02-26T15:55:30.909Z,1.60
2024-02-26T15:57:58.916Z,1.35
2024-02-26T16:00:27.989Z,0.93
2024-02-26T16:02:56.163Z,1.20
2024-02-26T16:05:24.236Z,2.67
2024-02-26T16:07:57.679Z,2.10
2024-02-26T16:10:28.589Z,1.08
2024-02-26T16:13:00.432Z,3.65
2024-02-26T16:15:29.565Z,0.95
2024-02-26T16:17:59.816Z,0.93
2024-02-26T16:20:30.619Z,1.40
2024-02-26T16:23:06.096Z,0.68
2024-02-26T16:25:34.365Z,1.27
2024-02-26T16:28:02.559Z,0.85
2024-02-26T16:30:33.673Z,0.35
2024-02-26T16:33:02.055Z,1.10
2024-02-26T16:35:30.306Z,1.52
2024-02-26T16:37:59.674Z,2.85
2024-02-26T16:40:27.795Z,1.65
2024-02-26T16:42:55.850Z,1.65
2024-02-26T16:45:24.050Z,0.85
2024-02-26T16:47:52.326Z,0.70
2024-02-26T16:50:21.411Z,1.58
2024-02-26T16:52:50.803Z,0.80
2024-02-26T16:55:20.697Z,0.75
2024-02-26T16:57:48.725Z,4.25
2024-02-26T17:00:17.995Z,1.38
2024-02-26T17:02:48.578Z,0.85
2024-02-26T17:05:16.952Z,1.02
2024-02-26T17:07:46.851Z,1.48
2024-02-26T17:10:16.430Z,2.05
2024-02-26T17:12:46.654Z,2.22
2024-02-26T17:15:14.906Z,1.48
2024-02-26T17:17:43.028Z,1.92
2024-02-26T17:20:11.877Z,2.67
2024-02-26T17:22:39.952Z,1.35
2024-02-26T17:25:08.778Z,4.30
2024-02-26T17:27:36.928Z,1.77
2024-02-26T17:30:08.441Z,8.15
2024-02-26T17:32:36.649Z,4.80
2024-02-26T17:35:06.740Z,3.20
2024-02-26T17:37:34.925Z,4.22
2024-02-26T17:40:03.131Z,1.10
2024-02-26T17:42:31.231Z,2.80
2024-02-26T17:44:58.556Z,11.05
2024-02-26T17:47:27.953Z,1.58
2024-02-26T17:49:56.113Z,9.43
2024-02-26T17:52:25.152Z,12.38
2024-02-26T17:54:53.204Z,10.15
2024-02-26T17:57:22.024Z,13.15
2024-02-26T17:59:50.296Z,7.60
2024-02-26T18:02:19.547Z,6.90
2024-02-26T18:04:49.131Z,5.72
2024-02-26T18:07:17.226Z,7.03
2024-02-26T18:09:45.249Z,3.53
2024-02-26T18:12:13.321Z,5.30
2024-02-26T18:14:41.330Z,3.85
2024-02-26T18:17:09.326Z,9.68
2024-02-26T18:19:37.506Z,9.80
2024-02-26T18:22:07.090Z,4.90
2024-02-26T18:24:35.138Z,2.00
2024-02-26T18:27:05.444Z,7.50
2024-02-26T18:29:33.791Z,5.60
2024-02-26T18:32:01.893Z,5.70
2024-02-26T18:34:30.134Z,5.40
2024-02-26T18:36:58.256Z,3.00
2024-02-26T18:39:27.818Z,3.40
2024-02-26T18:41:57.015Z,5.03
2024-02-26T18:44:25.255Z,4.97
2024-02-26T18:46:53.254Z,4.95
2024-02-26T18:49:21.493Z,6.25
2024-02-26T18:51:49.757Z,4.32
2024-02-26T18:54:17.962Z,3.05
2024-02-26T18:56:47.520Z,3.13
2024-02-26T18:59:17.205Z,3.38
2024-02-26T19:01:45.333Z,3.22
2024-02-26T19:04:13.449Z,4.25
2024-02-26T19:06:41.927Z,7.05
2024-02-26T19:09:11.918Z,7.70
2024-02-26T19:11:39.991Z,7.00
2024-02-26T19:14:09.472Z,9.70
2024-02-26T19:16:37.451Z,5.03
2024-02-26T19:19:06.119Z,5.35
2024-02-26T19:21:34.316Z,2.63
2024-02-26T19:24:04.284Z,2.85
2024-02-26T19:26:33.158Z,5.03
2024-02-26T19:29:04.294Z,4.78
2024-02-26T19:31:35.296Z,2.72
2024-02-26T19:34:03.510Z,1.27
2024-02-26T19:36:31.692Z,2.78
2024-02-26T19:38:59.742Z,2.80
2024-02-26T19:41:27.817Z,4.10
2024-02-26T19:43:55.843Z,6.40
2024-02-26T19:46:24.252Z,7.50
2024-02-26T19:48:53.775Z,8.90
2024-02-26T19:51:21.943Z,9.18
2024-02-26T19:53:50.091Z,8.38
2024-02-26T19:56:19.668Z,9.05
2024-02-26T19:58:47.674Z,5.72
2024-02-26T20:01:15.836Z,5.35
2024-02-26T20:03:49.541Z,5.30
2024-02-26T20:06:19.749Z,6.57
2024-02-26T20:08:48.018Z,6.28
2024-02-26T20:11:18.076Z,5.90
2024-02-26T20:13:46.242Z,5.43
2024-02-26T20:16:14.509Z,2.90
2024-02-26T20:18:42.679Z,5.10
2024-02-26T20:21:10.916Z,6.32
2024-02-26T20:23:40.469Z,2.33
2024-02-26T20:26:08.529Z,4.80
2024-02-26T20:28:37.055Z,4.13
2024-02-26T20:31:06.970Z,4.63
2024-02-26T20:33:37.345Z,5.47
2024-02-26T20:36:06.415Z,6.40
2024-02-26T20:38:34.440Z,3.17
2024-02-26T20:41:03.887Z,3.15
2024-02-26T20:43:31.915Z,5.93
2024-02-26T20:46:00.214Z,5.53
2024-02-26T20:48:28.429Z,5.68
2024-02-26T20:50:56.527Z,4.55
2024-02-26T20:53:24.630Z,6.13
2024-02-26T20:55:54.003Z,7.38
2024-02-26T20:58:23.426Z,5.65
2024-02-26T21:00:51.447Z,2.58
2024-02-26T21:03:20.073Z,4.15
2024-02-26T21:05:48.196Z,1.92
2024-02-26T21:08:23.765Z,4.53
2024-02-26T21:10:57.072Z,2.95
2024-02-26T21:13:26.474Z,2.40
2024-02-26T21:15:54.492Z,3.43
2024-02-26T21:18:23.022Z,2.97
2024-02-26T21:20:54.237Z,4.43
2024-02-26T21:23:22.550Z,5.45
2024-02-26T21:25:50.797Z,2.45
2024-02-26T21:28:18.800Z,2.17
2024-02-26T21:30:48.214Z,1.80
2024-02-26T21:33:16.381Z,1.88
2024-02-26T21:35:44.495Z,2.00
2024-02-26T21:38:12.513Z,1.73
2024-02-26T21:40:40.521Z,3.17
2024-02-26T21:43:08.615Z,3.92
2024-02-26T21:45:37.993Z,3.58
2024-02-26T21:48:07.992Z,3.70
2024-02-26T21:50:36.388Z,2.60
2024-02-26T21:53:04.608Z,4.33
2024-02-26T21:55:32.681Z,3.78
2024-02-26T21:58:00.644Z,2.57
2024-02-26T22:00:28.774Z,5.43
2024-02-26T22:02:56.912Z,4.27
2024-02-26T22:05:26.285Z,3.23
2024-02-26T22:07:54.909Z,5.80
2024-02-26T22:10:22.931Z,4.23
2024-02-26T22:12:50.946Z,3.60
2024-02-26T22:15:20.977Z,3.03
2024-02-26T22:17:49.368Z,3.75
2024-02-26T22:20:17.507Z,3.00
2024-02-26T22:22:46.906Z,3.25
2024-02-26T22:25:15.532Z,3.20
2024-02-26T22:27:43.543Z,5.00
2024-02-26T22:30:12.799Z,3.23
2024-02-26T22:32:40.865Z,4.57
2024-02-26T22:35:09.856Z,1.88
2024-02-26T22:37:39.353Z,1.93
2024-02-26T22:40:10.142Z,2.90
2024-02-26T22:42:39.334Z,4.20
2024-02-26T22:45:08.762Z,2.97
2024-02-26T22:47:36.907Z,2.53
2024-02-26T22:50:05.848Z,1.93
2024-02-26T22:52:33.848Z,2.13
2024-02-26T22:55:02.104Z,3.47
2024-02-26T22:57:31.578Z,2.43
2024-02-26T22:59:59.743Z,1.70
2024-02-26T23:02:27.869Z,2.83
2024-02-26T23:04:55.902Z,3.63
2024-02-26T23:07:23.986Z,2.00
2024-02-26T23:09:52.058Z,1.65
2024-02-26T23:12:20.198Z,2.63
2024-02-26T23:14:49.600Z,2.95
2024-02-26T23:17:17.620Z,1.90
2024-02-26T23:19:45.698Z,1.55
2024-02-26T23:22:13.751Z,1.93
2024-02-26T23:24:41.803Z,2.17
2024-02-26T23:27:10.014Z,2.87
2024-02-26T23:29:39.043Z,2.77
2024-02-26T23:32:08.962Z,3.78
2024-02-26T23:34:37.084Z,2.93
2024-02-26T23:37:05.393Z,1.95
2024-02-26T23:39:34.280Z,3.57
2024-02-26T23:42:02.398Z,4.17
2024-02-26T23:44:30.514Z,3.17
2024-02-26T23:46:58.552Z,2.47
2024-02-26T23:49:28.333Z,5.87
2024-02-26T23:51:56.358Z,2.57
2024-02-26T23:54:24.559Z,2.67
2024-02-26T23:56:52.606Z,4.03
2024-02-26T23:59:21.092Z,2.97
